Time;durP1;ratioP1;P1;durP2;ratioP2;P2;SDS_P1;SDS_P2;PMS_P1;PMS_P2;Temp;Humidity;BMP_temperature;BMP_pressure;BME280_temperature;BME280_humidity;BME280_pressure;Samples;Min_cycle;Max_cycle;Signal;HPM_P1;HPM_P2
2022/04/25 00:01:48;;;;;;;0.47;0.47;;;20.40;99.90;;;;;;5090965;28;20274;-66
2022/04/25 00:04:16;;;;;;;0.40;0.30;;;20.60;99.90;;;;;;5092455;28;20186;-66
2022/04/25 00:06:43;;;;;;;0.83;0.40;;;21.10;99.90;;;;;;5092742;28;20190;-67
2022/04/25 00:09:10;;;;;;;0.70;0.37;;;21.30;99.90;;;;;;5092668;28;20187;-66
2022/04/25 00:11:38;;;;;;;1.00;0.40;;;21.50;99.90;;;;;;5092945;28;20193;-67
2022/04/25 00:14:06;;;;;;;0.40;0.40;;;21.20;99.90;;;;;;5093219;28;20172;-67
2022/04/25 00:16:34;;;;;;;0.67;0.40;;;21.10;99.90;;;;;;5092700;28;20227;-66
2022/04/25 00:19:02;;;;;;;1.07;0.40;;;21.50;99.90;;;;;;5092985;28;20185;-66
2022/04/25 00:21:29;;;;;;;1.27;0.20;;;21.80;99.90;;;;;;5093374;28;20186;-66
2022/04/25 00:23:57;;;;;;;1.10;0.37;;;22.00;99.90;;;;;;5093107;28;20190;-66
2022/04/25 00:26:25;;;;;;;0.73;0.30;;;22.00;99.90;;;;;;5093157;28;20175;-66
2022/04/25 00:28:52;;;;;;;0.60;0.33;;;22.20;99.90;;;;;;5073051;28;20546;-66
2022/04/25 00:31:19;;;;;;;1.03;0.20;;;22.70;99.90;;;;;;5091780;28;20652;-67
2022/04/25 00:33:47;;;;;;;1.23;0.37;;;22.60;99.90;;;;;;5092263;28;20206;-67
2022/04/25 00:36:14;;;;;;;0.93;0.30;;;22.70;99.90;;;;;;5092212;28;20278;-67
2022/04/25 00:38:42;;;;;;;1.13;0.40;;;23.50;99.90;;;;;;5091699;28;20183;-70
2022/04/25 00:41:09;;;;;;;1.90;0.70;;;22.70;99.90;;;;;;5093035;28;20656;-70
2022/04/25 00:43:36;;;;;;;0.80;0.40;;;22.70;99.90;;;;;;5092434;28;20228;-70
2022/04/25 00:46:04;;;;;;;0.50;0.20;;;22.80;99.90;;;;;;5096539;28;20227;-68
2022/04/25 00:48:31;;;;;;;1.10;0.60;;;22.50;99.90;;;;;;5096999;28;20178;-69
2022/04/25 00:50:59;;;;;;;1.97;0.50;;;22.20;99.90;;;;;;5097384;28;20182;-69
2022/04/25 00:53:26;;;;;;;2.17;0.40;;;22.30;99.90;;;;;;5097188;28;20182;-69
2022/04/25 00:55:54;;;;;;;0.50;0.30;;;22.20;99.90;;;;;;5097291;28;20545;-69
2022/04/25 00:58:21;;;;;;;1.67;0.50;;;22.50;99.90;;;;;;5096966;28;20220;-69
2022/04/25 01:00:49;;;;;;;0.60;0.30;;;22.50;99.90;;;;;;5097306;28;20601;-69
2022/04/25 01:03:17;;;;;;;0.83;0.30;;;22.50;99.90;;;;;;5097028;28;20190;-69
2022/04/25 01:05:44;;;;;;;0.40;0.20;;;22.30;99.90;;;;;;5097221;28;20636;-69
2022/04/25 01:08:12;;;;;;;0.97;0.30;;;22.10;99.90;;;;;;5096759;28;20229;-69
2022/04/25 01:10:39;;;;;;;1.37;0.40;;;21.80;99.90;;;;;;5097052;28;20181;-69
2022/04/25 01:13:06;;;;;;;1.00;0.50;;;21.60;99.90;;;;;;5096950;28;20234;-69
2022/04/25 01:15:34;;;;;;;2.87;0.40;;;21.20;99.90;;;;;;5096727;28;20230;-69
2022/04/25 01:18:02;;;;;;;2.10;0.50;;;20.70;99.90;;;;;;5096684;28;20213;-69
2022/04/25 01:20:29;;;;;;;1.43;0.30;;;20.70;99.90;;;;;;5096736;28;20175;-69
2022/04/25 01:28:55;;;;;;;0.60;0.50;;;20.70;99.90;;;;;;5096448;28;20186;-69
2022/04/25 01:31:22;;;;;;;0.90;0.80;;;20.70;99.90;;;;;;5096623;28;20629;-68
2022/04/25 01:33:49;;;;;;;1.20;0.90;;;20.50;99.90;;;;;;5095188;28;20198;-69
2022/04/25 01:36:17;;;;;;;1.50;0.97;;;20.60;99.90;;;;;;5096505;28;20183;-69
2022/04/25 01:38:44;;;;;;;1.83;1.40;;;20.40;99.90;;;;;;5096389;28;20183;-69
2022/04/25 01:41:12;;;;;;;1.60;1.17;;;20.20;99.90;;;;;;5096304;28;20545;-69
2022/04/25 01:43:39;;;;;;;1.77;1.10;;;20.40;99.90;;;;;;5096340;28;20169;-69
2022/04/25 01:46:06;;;;;;;2.63;0.90;;;20.50;99.90;;;;;;5095091;28;20274;-70
2022/04/25 01:48:33;;;;;;;1.63;0.83;;;20.60;99.90;;;;;;5096081;28;20183;-69
2022/04/25 01:51:01;;;;;;;1.57;0.93;;;21.90;99.90;;;;;;5096376;28;20258;-69
2022/04/25 01:53:29;;;;;;;1.07;0.80;;;23.00;99.90;;;;;;5096180;28;20183;-70
2022/04/25 01:55:57;;;;;;;2.70;0.70;;;24.10;99.90;;;;;;5095166;28;20182;-70
2022/04/25 01:58:27;;;;;;;1.23;0.60;;;24.00;99.90;;;;;;5095687;28;20223;-69
2022/04/25 02:00:55;;;;;;;0.70;0.60;;;24.10;99.90;;;;;;5096012;28;20666;-69
2022/04/25 02:03:23;;;;;;;1.37;0.63;;;24.10;99.90;;;;;;5096392;28;20176;-70
2022/04/25 02:05:50;;;;;;;1.20;0.50;;;23.70;99.90;;;;;;5094667;28;20190;-70
2022/04/25 02:08:18;;;;;;;0.83;0.60;;;22.70;99.90;;;;;;5094363;28;20652;-69
2022/04/25 02:11:19;;;;;;;1.67;0.80;;;22.20;99.90;;;;;;5095847;28;20232;-69
2022/04/25 02:13:32;;;;;;;1.93;0.70;;;22.40;99.90;;;;;;5095687;28;20220;-70
2022/04/25 02:15:59;;;;;;;1.33;0.80;;;22.40;99.90;;;;;;5095464;28;20226;-70
2022/04/25 02:18:27;;;;;;;1.43;0.80;;;22.10;99.90;;;;;;5095755;28;20211;-70
2022/04/25 02:20:54;;;;;;;2.60;0.60;;;21.90;99.90;;;;;;5095664;28;20171;-70
2022/04/25 02:23:21;;;;;;;1.07;0.50;;;21.70;99.90;;;;;;5095650;28;20177;-69
2022/04/25 02:25:49;;;;;;;5.37;0.67;;;21.40;99.90;;;;;;5095581;28;20170;-69
2022/04/25 02:28:16;;;;;;;1.80;0.70;;;21.30;99.90;;;;;;5095292;28;20175;-70
2022/04/25 02:30:43;;;;;;;2.83;0.73;;;21.10;99.90;;;;;;5095500;28;20202;-70
2022/04/25 02:33:11;;;;;;;1.10;0.50;;;21.20;99.90;;;;;;5095522;28;20262;-70
2022/04/25 02:35:38;;;;;;;3.13;0.80;;;21.30;99.90;;;;;;5095306;28;20175;-70
2022/04/25 02:38:05;;;;;;;0.93;0.60;;;21.30;99.90;;;;;;5095361;28;20301;-70
2022/04/25 02:40:33;;;;;;;0.77;0.50;;;21.30;99.90;;;;;;5095632;28;20304;-70
2022/04/25 02:43:00;;;;;;;1.50;0.70;;;21.60;99.90;;;;;;5095363;28;20175;-70
2022/04/25 02:45:27;;;;;;;0.77;0.60;;;21.80;99.90;;;;;;5093976;28;20171;-70
2022/04/25 02:47:58;;;;;;;1.67;0.67;;;21.80;99.90;;;;;;5094817;28;20636;-69
2022/04/25 02:50:26;;;;;;;2.40;0.70;;;22.00;99.90;;;;;;5094953;28;20220;-70
2022/04/25 02:52:56;;;;;;;1.10;0.63;;;21.90;99.90;;;;;;5095145;28;20268;-70
2022/04/25 02:55:23;;;;;;;1.27;0.60;;;21.80;99.90;;;;;;5093658;28;20178;-70
2022/04/25 02:57:51;;;;;;;0.90;0.60;;;21.70;99.90;;;;;;5095047;28;20248;-70
2022/04/25 03:00:18;;;;;;;1.67;0.70;;;21.80;99.90;;;;;;5093590;28;20540;-70
2022/04/25 03:02:46;;;;;;;5.17;0.80;;;21.70;99.90;;;;;;5094887;28;20174;-70
2022/04/25 03:05:13;;;;;;;1.73;0.50;;;21.90;99.90;;;;;;5094727;28;20671;-70
2022/04/25 03:07:40;;;;;;;2.93;0.60;;;21.90;99.90;;;;;;5094519;28;20211;-69
2022/04/25 03:10:08;;;;;;;4.60;0.90;;;21.80;99.90;;;;;;5094976;28;20529;-70
2022/04/25 03:12:38;;;;;;;2.57;0.60;;;21.80;99.90;;;;;;5093410;28;20584;-70
2022/04/25 03:15:06;;;;;;;0.63;0.47;;;21.90;99.90;;;;;;5094381;28;20215;-70
2022/04/25 03:17:33;;;;;;;1.27;0.67;;;22.00;99.90;;;;;;5094640;28;20306;-70
2022/04/25 03:20:01;;;;;;;1.47;0.50;;;22.10;99.90;;;;;;5093373;28;20184;-70
2022/04/25 03:22:28;;;;;;;2.50;0.77;;;22.10;99.90;;;;;;5094421;28;20186;-69
2022/04/25 03:24:55;;;;;;;1.30;0.87;;;22.10;99.90;;;;;;5094601;28;20221;-70
2022/04/25 03:27:25;;;;;;;4.23;1.30;;;22.00;99.90;;;;;;5094328;28;20175;-70
2022/04/25 03:29:53;;;;;;;1.27;0.70;;;22.00;99.90;;;;;;5094314;28;20203;-70
2022/04/25 03:32:20;;;;;;;2.33;0.80;;;22.10;99.90;;;;;;5094164;28;20182;-70
2022/04/25 03:34:51;;;;;;;0.93;0.70;;;22.20;99.90;;;;;;5094316;28;20693;-70
2022/04/25 03:37:18;;;;;;;1.97;0.50;;;22.40;99.90;;;;;;5094097;28;20211;-70
2022/04/25 03:39:45;;;;;;;2.23;0.53;;;22.70;99.90;;;;;;5094337;28;20170;-70
2022/04/25 03:42:13;;;;;;;1.40;0.60;;;23.00;99.90;;;;;;5094603;28;20173;-70
2022/04/25 03:44:41;;;;;;;1.67;0.63;;;22.80;99.90;;;;;;5092756;28;20193;-70
2022/04/25 03:47:08;;;;;;;1.10;0.60;;;23.30;99.90;;;;;;5093982;28;20182;-70
2022/04/25 03:49:35;;;;;;;1.10;0.50;;;23.90;99.90;;;;;;5093852;28;20221;-70
2022/04/25 03:52:03;;;;;;;0.57;0.50;;;24.40;99.90;;;;;;5094001;28;20170;-70
2022/04/25 03:57:16;;;;;;;1.90;0.63;;;25.70;99.90;;;;;;5093666;28;20224;-70
2022/04/25 03:59:43;;;;;;;2.47;0.70;;;24.30;99.90;;;;;;5093947;28;20178;-70
2022/04/25 04:02:11;;;;;;;0.70;0.50;;;23.40;99.90;;;;;;5093758;28;20175;-70
2022/04/25 04:04:38;;;;;;;1.87;0.67;;;23.10;99.90;;;;;;5093614;28;20183;-70
2022/04/25 04:07:06;;;;;;;1.67;0.60;;;23.20;99.90;;;;;;5093470;28;20190;-69
2022/04/25 04:09:46;;;;;;;1.63;0.70;;;24.00;99.90;;;;;;5093638;28;20197;-70
2022/04/25 04:12:14;;;;;;;2.70;0.80;;;24.00;99.90;;;;;;5093573;28;20210;-70
2022/04/25 04:14:43;;;;;;;0.73;0.50;;;23.90;99.90;;;;;;5093478;28;20223;-70
2022/04/25 04:17:10;;;;;;;1.37;0.47;;;23.80;99.90;;;;;;5093495;28;20264;-70
2022/04/25 04:19:39;;;;;;;2.00;0.90;;;23.70;99.90;;;;;;5092801;28;20696;-70
2022/04/25 04:22:07;;;;;;;4.70;0.70;;;23.70;99.90;;;;;;5093361;28;20635;-70
2022/04/25 04:24:35;;;;;;;6.20;0.80;;;23.50;99.90;;;;;;5093344;28;20203;-70
2022/04/25 04:27:06;;;;;;;3.57;0.70;;;23.90;99.90;;;;;;5093611;28;20172;-70
2022/04/25 04:29:35;;;;;;;1.13;0.50;;;24.80;99.90;;;;;;5093287;28;20206;-70
2022/04/25 04:32:07;;;;;;;1.40;0.60;;;24.20;99.90;;;;;;5093302;28;20232;-70
2022/04/25 04:34:35;;;;;;;0.90;0.60;;;23.60;99.90;;;;;;5093142;28;20229;-70
2022/04/25 04:37:04;;;;;;;1.83;0.70;;;23.10;99.90;;;;;;5093254;28;20259;-70
2022/04/25 04:39:31;;;;;;;3.83;0.80;;;22.70;99.90;;;;;;5093049;28;20175;-70
2022/04/25 04:41:59;;;;;;;1.20;0.70;;;22.30;99.90;;;;;;5093296;28;20182;-70
2022/04/25 04:44:27;;;;;;;5.47;0.73;;;22.10;99.90;;;;;;5091808;28;20206;-70
2022/04/25 04:46:54;;;;;;;4.57;1.17;;;22.00;99.90;;;;;;5093109;28;20217;-69
2022/04/25 04:49:21;;;;;;;6.27;0.77;;;21.80;99.90;;;;;;5092942;28;20171;-70
2022/04/25 04:51:48;;;;;;;4.90;0.87;;;21.60;99.90;;;;;;5093235;28;20192;-70
2022/04/25 04:54:16;;;;;;;2.73;0.70;;;21.60;99.90;;;;;;5093177;28;20210;-70
2022/04/25 04:56:43;;;;;;;1.97;0.87;;;21.50;99.90;;;;;;5093138;28;20230;-70
2022/04/25 04:59:11;;;;;;;3.77;0.77;;;21.60;99.90;;;;;;5092836;28;20210;-70
2022/04/25 05:01:38;;;;;;;3.03;0.77;;;21.80;99.90;;;;;;5093062;28;20176;-70
2022/04/25 05:04:06;;;;;;;2.70;0.90;;;21.90;99.90;;;;;;5091613;28;20185;-70
2022/04/25 05:06:33;;;;;;;3.57;0.80;;;22.10;99.90;;;;;;5092959;28;20182;-70
2022/04/25 05:09:00;;;;;;;3.67;0.83;;;22.10;99.90;;;;;;5092739;28;20262;-70
2022/04/25 05:11:30;;;;;;;3.20;0.90;;;22.10;99.90;;;;;;5093114;28;20175;-70
2022/04/25 05:13:59;;;;;;;2.27;0.60;;;22.30;99.90;;;;;;5092844;28;20189;-70
2022/04/25 05:16:27;;;;;;;1.80;0.80;;;22.40;99.90;;;;;;5092845;28;20215;-70
2022/04/25 05:18:55;;;;;;;5.53;1.17;;;22.40;99.90;;;;;;5092713;28;20689;-70
2022/04/25 05:21:23;;;;;;;3.20;1.00;;;22.40;99.90;;;;;;5092931;28;20633;-69
2022/04/25 05:23:50;;;;;;;1.23;0.70;;;22.30;99.90;;;;;;5093021;28;20621;-70
2022/04/25 05:26:17;;;;;;;2.60;0.60;;;22.20;99.90;;;;;;5092740;28;20694;-70
2022/04/25 05:28:45;;;;;;;2.63;0.70;;;22.00;99.90;;;;;;5092781;28;20224;-69
2022/04/25 05:31:13;;;;;;;1.27;0.70;;;21.90;99.90;;;;;;5093514;28;20199;-69
2022/04/25 05:33:40;;;;;;;2.37;0.70;;;21.80;99.90;;;;;;5096598;28;20187;-70
2022/04/25 05:36:08;;;;;;;2.23;0.90;;;21.80;99.90;;;;;;5096580;28;20171;-69
2022/04/25 05:38:37;;;;;;;2.30;0.80;;;21.90;99.90;;;;;;5096419;28;20214;-70
2022/04/25 05:41:07;;;;;;;1.37;0.43;;;21.90;99.90;;;;;;5096316;28;20167;-70
2022/04/25 05:43:34;;;;;;;2.23;0.80;;;21.90;99.90;;;;;;5096496;28;20175;-70
2022/04/25 05:46:01;;;;;;;3.43;0.70;;;21.90;99.90;;;;;;5096221;28;20262;-69
2022/04/25 05:54:00;;;;;;;2.50;0.53;;;21.60;99.90;;;;;;5096216;28;20661;-69
2022/04/25 05:56:27;;;;;;;2.20;0.70;;;21.50;99.90;;;;;;5095959;28;20221;-69
2022/04/25 05:58:55;;;;;;;2.63;0.67;;;21.30;99.90;;;;;;5096102;28;20262;-69
2022/04/25 06:01:22;;;;;;;1.13;0.67;;;21.30;99.90;;;;;;5096043;28;20176;-69
2022/04/25 06:03:49;;;;;;;1.37;0.53;;;21.20;99.90;;;;;;5095920;28;20207;-69
2022/04/25 06:06:21;;;;;;;2.20;1.00;;;21.10;99.90;;;;;;5095739;28;20227;-70
2022/04/25 06:08:49;;;;;;;3.70;1.00;;;21.10;99.90;;;;;;5095849;28;20227;-69
2022/04/25 06:11:16;;;;;;;2.00;0.80;;;21.00;99.90;;;;;;5095852;28;20189;-69
2022/04/25 06:13:44;;;;;;;2.53;0.70;;;21.00;99.90;;;;;;5095726;28;20175;-69
2022/04/25 06:16:12;;;;;;;1.57;0.80;;;21.00;99.90;;;;;;5095390;28;20225;-69
2022/04/25 06:18:39;;;;;;;5.57;0.80;;;20.90;99.90;;;;;;5095578;28;20249;-69
2022/04/25 06:21:07;;;;;;;2.03;0.97;;;20.90;99.90;;;;;;5095532;28;20194;-69
2022/04/25 06:23:34;;;;;;;1.63;0.53;;;20.80;99.90;;;;;;5095657;28;20175;-69
2022/04/25 06:26:01;;;;;;;4.00;0.60;;;20.80;99.90;;;;;;5095457;28;20274;-69
2022/04/25 06:28:29;;;;;;;1.00;0.67;;;20.70;99.90;;;;;;5095362;28;20243;-69
2022/04/25 06:30:56;;;;;;;3.27;0.60;;;20.70;99.90;;;;;;5093957;28;20193;-69
2022/04/25 06:33:24;;;;;;;0.77;0.57;;;20.60;99.90;;;;;;5094039;28;20224;-69
2022/04/25 06:35:51;;;;;;;1.00;0.60;;;20.60;99.90;;;;;;5095169;28;20177;-69
2022/04/25 06:38:19;;;;;;;2.70;0.60;;;20.60;99.90;;;;;;5095194;28;20219;-69
2022/04/25 06:40:47;;;;;;;2.40;0.63;;;20.60;99.90;;;;;;5095023;28;20184;-69
2022/04/25 06:43:14;;;;;;;3.60;1.03;;;20.50;99.90;;;;;;5094777;28;20543;-69
2022/04/25 06:45:42;;;;;;;4.07;0.60;;;20.50;99.90;;;;;;5095117;28;20179;-69
2022/04/25 06:48:09;;;;;;;1.70;0.70;;;20.40;99.90;;;;;;5095085;28;20175;-69
2022/04/25 06:50:37;;;;;;;1.33;0.63;;;20.40;99.90;;;;;;5095194;28;20192;-69
2022/04/25 06:53:04;;;;;;;1.80;0.73;;;20.40;99.90;;;;;;5094906;28;20261;-69
2022/04/25 06:55:31;;;;;;;1.47;0.57;;;20.30;99.90;;;;;;5094833;28;20317;-69
2022/04/25 06:58:00;;;;;;;1.33;0.50;;;20.20;99.90;;;;;;5095192;28;20214;-69
2022/04/25 07:00:28;;;;;;;2.37;0.70;;;20.10;99.90;;;;;;5095153;28;20202;-69
2022/04/25 07:02:55;;;;;;;1.30;0.60;;;20.00;99.90;;;;;;5094781;28;20180;-69
2022/04/25 07:05:22;;;;;;;2.23;0.83;;;19.90;99.90;;;;;;5094822;28;20313;-69
2022/04/25 07:07:50;;;;;;;2.33;0.90;;;19.80;99.90;;;;;;5093218;28;20184;-69
2022/04/25 07:10:17;;;;;;;2.07;1.00;;;19.60;99.90;;;;;;5094564;28;20168;-69
2022/04/25 07:12:45;;;;;;;2.80;1.00;;;19.50;99.90;;;;;;5094702;28;20201;-69
2022/04/25 07:15:12;;;;;;;2.20;1.10;;;19.50;99.90;;;;;;5094419;28;20324;-69
2022/04/25 07:17:39;;;;;;;2.77;1.07;;;19.30;99.90;;;;;;5094517;28;20229;-69
2022/04/25 07:20:08;;;;;;;1.73;0.97;;;19.20;99.90;;;;;;5094481;28;20177;-69
2022/04/25 07:30:51;;;;;;;3.73;1.90;;;18.90;99.90;;;;;;5094681;28;20596;-69
2022/04/25 07:33:19;;;;;;;1.70;1.00;;;18.80;99.90;;;;;;5094081;28;20652;-69
2022/04/25 07:35:46;;;;;;;2.70;1.33;;;18.80;99.90;;;;;;5094175;28;20186;-69
2022/04/25 07:38:13;;;;;;;2.43;1.47;;;18.70;99.90;;;;;;5093851;28;20215;-69
2022/04/25 07:40:41;;;;;;;11.73;1.30;;;18.60;99.90;;;;;;5094215;28;20606;-69
2022/04/25 07:43:10;;;;;;;2.77;1.43;;;18.50;99.90;;;;;;5093820;28;20621;-69
2022/04/25 07:45:37;;;;;;;5.93;1.60;;;18.50;99.90;;;;;;5094052;28;20625;-69
2022/04/25 07:48:05;;;;;;;3.07;1.53;;;18.40;99.90;;;;;;5093742;28;20331;-69
2022/04/25 07:50:32;;;;;;;5.47;2.53;;;18.40;99.90;;;;;;5093928;28;20171;-69
2022/04/25 07:52:59;;;;;;;6.77;1.90;;;18.40;99.90;;;;;;5093847;28;20174;-69
2022/04/25 07:55:27;;;;;;;3.43;2.10;;;18.30;99.90;;;;;;5093123;28;20625;-69
2022/04/25 07:57:54;;;;;;;11.43;2.67;;;18.30;99.90;;;;;;5093596;28;20302;-69
2022/04/25 08:00:21;;;;;;;4.37;2.70;;;18.20;99.90;;;;;;5093653;28;20261;-69
2022/04/25 08:02:49;;;;;;;5.33;2.70;;;18.20;99.90;;;;;;5093606;28;20175;-69
2022/04/25 08:05:16;;;;;;;8.13;3.30;;;18.20;99.90;;;;;;5093599;28;20254;-69
2022/04/25 08:07:43;;;;;;;11.43;3.00;;;18.10;99.90;;;;;;5093507;28;20214;-69
2022/04/25 08:10:11;;;;;;;6.03;3.20;;;18.10;99.90;;;;;;5092502;28;20179;-69
2022/04/25 08:18:11;;;;;;;5.43;2.80;;;17.90;99.90;;;;;;5093456;28;20756;-69
2022/04/25 08:20:39;;;;;;;5.77;2.63;;;17.90;99.90;;;;;;5093451;28;20173;-69
2022/04/25 08:23:12;;;;;;;4.77;2.73;;;17.90;99.90;;;;;;5093499;28;20182;-69
2022/04/25 08:25:41;;;;;;;6.33;2.90;;;17.90;99.90;;;;;;5093448;28;20182;-69
2022/04/25 08:28:10;;;;;;;5.27;2.30;;;17.90;99.90;;;;;;5091884;28;20179;-69
2022/04/25 08:30:38;;;;;;;5.30;2.50;;;17.90;99.90;;;;;;5092115;28;20183;-68
2022/04/25 08:33:07;;;;;;;4.47;2.33;;;17.90;99.90;;;;;;5093856;28;20220;-68
2022/04/25 08:35:34;;;;;;;4.93;2.03;;;17.90;99.90;;;;;;5093306;28;20615;-69
2022/04/25 08:38:01;;;;;;;6.70;2.60;;;17.90;99.90;;;;;;5093285;28;20235;-69
2022/04/25 08:40:36;;;;;;;7.57;2.73;;;17.90;99.90;;;;;;5093239;28;20261;-69
2022/04/25 08:43:05;;;;;;;4.43;2.70;;;18.00;99.90;;;;;;5093398;28;20257;-69
2022/04/25 08:45:33;;;;;;;5.03;2.40;;;18.00;99.90;;;;;;5092029;28;20665;-71
2022/04/25 08:48:03;;;;;;;5.30;2.87;;;18.10;99.90;;;;;;5093059;28;20189;-70
2022/04/25 08:50:32;;;;;;;6.03;2.90;;;18.00;99.90;;;;;;5093184;28;20185;-70
2022/04/25 08:53:00;;;;;;;3.63;2.40;;;18.10;99.90;;;;;;5093196;28;20228;-69
2022/04/25 08:55:27;;;;;;;7.47;3.00;;;18.10;99.90;;;;;;5093301;28;20270;-70
2022/04/25 08:57:57;;;;;;;3.50;2.20;;;18.00;99.90;;;;;;5093025;28;20233;-70
2022/04/25 09:00:25;;;;;;;4.10;2.03;;;18.10;99.90;;;;;;5093259;28;20179;-69
2022/04/25 09:02:54;;;;;;;5.10;2.17;;;18.20;99.90;;;;;;5093392;28;20187;-71
2022/04/25 09:05:22;;;;;;;4.23;1.80;;;18.20;99.90;;;;;;5093641;28;20241;-69
2022/04/25 09:07:49;;;;;;;4.47;2.20;;;18.20;99.90;;;;;;5096805;28;20175;-70
2022/04/25 09:10:18;;;;;;;6.33;2.13;;;18.20;99.90;;;;;;5097105;28;20182;-71
2022/04/25 09:12:49;;;;;;;5.37;2.60;;;18.20;99.90;;;;;;5097119;28;20190;-70
2022/04/25 09:15:22;;;;;;;7.77;2.70;;;18.20;99.90;;;;;;5096872;28;20699;-70
2022/04/25 09:17:50;;;;;;;6.30;2.37;;;18.10;99.90;;;;;;5096781;28;20218;-70
2022/04/25 09:20:19;;;;;;;8.30;2.87;;;18.00;99.90;;;;;;5096986;28;20625;-69
2022/04/25 09:22:47;;;;;;;5.57;2.40;;;17.90;99.90;;;;;;5096957;28;20267;-69
2022/04/25 09:25:16;;;;;;;9.87;2.53;;;17.80;99.90;;;;;;5096877;28;20183;-70
2022/04/25 09:27:44;;;;;;;6.57;2.50;;;17.70;99.90;;;;;;5096734;28;20751;-70
2022/04/25 09:30:24;;;;;;;5.70;2.77;;;17.60;99.90;;;;;;5096647;28;20539;-70
2022/04/25 09:32:53;;;;;;;5.47;2.40;;;17.50;99.90;;;;;;5096520;28;20262;-70
2022/04/25 09:35:41;;;;;;;3.67;2.40;;;17.40;99.90;;;;;;5096692;28;20175;-70
2022/04/25 09:38:09;;;;;;;4.87;2.13;;;17.40;99.90;;;;;;5096526;28;20663;-69
2022/04/25 09:40:38;;;;;;;6.53;2.40;;;17.40;99.90;;;;;;5096493;28;20625;-70
2022/04/25 09:43:08;;;;;;;5.43;2.30;;;17.30;99.90;;;;;;5096705;28;20175;-69
2022/04/25 09:45:40;;;;;;;3.13;2.37;;;17.20;99.90;;;;;;5096469;28;20168;-70
2022/04/25 09:48:18;;;;;;;4.37;2.03;;;17.10;99.90;;;;;;5096410;28;20637;-69
2022/04/25 09:51:07;;;;;;;8.83;3.10;;;17.00;99.90;;;;;;5096415;28;20174;-69
2022/04/25 09:53:50;;;;;;;5.80;2.50;;;17.00;99.90;;;;;;5096276;28;20648;-70
2022/04/25 09:56:26;;;;;;;7.03;2.50;;;16.90;99.90;;;;;;5096265;28;20210;-70
2022/04/25 09:59:01;;;;;;;4.67;2.00;;;16.90;99.90;;;;;;5095812;28;20211;-69
2022/04/25 10:01:30;;;;;;;3.70;2.13;;;16.80;99.90;;;;;;5096151;28;20175;-70
2022/04/25 10:03:58;;;;;;;3.60;2.60;;;16.80;99.90;;;;;;5096023;28;20221;-70
2022/04/25 10:06:25;;;;;;;8.43;2.40;;;16.70;99.90;;;;;;5096054;28;20171;-70
2022/04/25 10:08:53;;;;;;;8.27;2.93;;;16.60;99.90;;;;;;5095680;28;20178;-69
2022/04/25 10:11:25;;;;;;;5.33;2.70;;;16.60;99.90;;;;;;5095873;28;20179;-70
2022/04/25 10:13:52;;;;;;;5.30;2.93;;;16.60;99.90;;;;;;5096157;28;20164;-70
2022/04/25 10:16:23;;;;;;;5.33;2.70;;;16.50;99.90;;;;;;5096101;28;20231;-69
2022/04/25 10:18:53;;;;;;;7.77;2.97;;;16.40;99.90;;;;;;5094743;28;20672;-70
2022/04/25 10:21:24;;;;;;;4.80;2.87;;;16.40;99.90;;;;;;5095821;28;20708;-70
2022/04/25 10:23:52;;;;;;;5.70;2.83;;;16.30;99.90;;;;;;5095847;28;20262;-70
2022/04/25 10:26:25;;;;;;;6.13;3.57;;;16.20;99.90;;;;;;5095622;28;20588;-68
2022/04/25 10:29:10;;;;;;;9.33;3.00;;;16.20;99.90;;;;;;5095531;28;20525;-69
2022/04/25 10:31:42;;;;;;;4.47;3.33;;;16.10;99.90;;;;;;5095653;28;20172;-69
2022/04/25 10:34:14;;;;;;;6.27;3.53;;;16.00;99.90;;;;;;5094336;28;20187;-70
2022/04/25 10:36:42;;;;;;;5.03;3.40;;;16.00;99.90;;;;;;5095485;28;20179;-69
2022/04/25 10:39:27;;;;;;;6.80;3.17;;;15.90;99.90;;;;;;5095127;28;20254;-69
2022/04/25 10:44:45;;;;;;;7.40;3.37;;;15.80;99.90;;;;;;5095194;28;20304;-69
2022/04/25 10:47:13;;;;;;;4.37;3.13;;;15.70;99.90;;;;;;5095368;28;20206;-69
2022/04/25 10:49:42;;;;;;;6.80;3.13;;;15.60;99.90;;;;;;5095044;28;20185;-69
2022/04/25 10:52:53;;;;;;;6.90;3.30;;;15.60;99.90;;;;;;5095227;28;20259;-69
2022/04/25 10:55:23;;;;;;;7.20;3.27;;;15.50;99.90;;;;;;5032667;28;20189;-69
2022/04/25 10:58:07;;;;;;;7.53;3.30;;;15.50;99.90;;;;;;5087944;28;20219;-69
2022/04/25 11:00:40;;;;;;;10.53;4.00;;;15.40;99.90;;;;;;5094872;28;20633;-69
2022/04/25 11:03:12;;;;;;;8.27;3.30;;;15.40;99.90;;;;;;5094830;28;20174;-69
2022/04/25 11:05:43;;;;;;;7.63;3.47;;;15.40;99.90;;;;;;5094756;28;20178;-69
2022/04/25 11:08:23;;;;;;;4.80;3.23;;;15.40;99.90;;;;;;5093336;28;20537;-70
2022/04/25 11:11:01;;;;;;;6.80;3.40;;;15.30;99.90;;;;;;5094750;28;20179;-69
2022/04/25 11:13:50;;;;;;;9.00;4.20;;;15.30;99.90;;;;;;5094708;28;20182;-69
2022/04/25 11:16:24;;;;;;;5.83;3.97;;;15.30;99.90;;;;;;5094458;28;20259;-69
2022/04/25 11:19:14;;;;;;;7.53;4.00;;;15.20;99.90;;;;;;5093268;28;20211;-68
2022/04/25 11:21:49;;;;;;;7.27;3.70;;;15.30;99.90;;;;;;5093313;28;20183;-68
2022/04/25 11:24:38;;;;;;;7.30;3.57;;;15.20;99.90;;;;;;5094628;28;20170;-68
2022/04/25 11:27:14;;;;;;;8.17;4.00;;;15.20;99.90;;;;;;5094590;28;20230;-69
2022/04/25 11:29:47;;;;;;;7.80;3.93;;;15.20;99.90;;;;;;5094667;28;20556;-68
2022/04/25 11:32:35;;;;;;;6.33;4.00;;;15.10;99.90;;;;;;5094581;28;20229;-69
2022/04/25 11:35:04;;;;;;;10.10;4.60;;;15.10;99.90;;;;;;5094408;28;20171;-68
2022/04/25 11:37:33;;;;;;;8.27;4.33;;;15.10;99.90;;;;;;5089918;28;20312;-67
2022/04/25 11:40:06;;;;;;;7.50;4.60;;;15.10;99.90;;;;;;5093394;28;20202;-67
2022/04/25 11:42:36;;;;;;;7.67;4.07;;;15.10;99.90;;;;;;5074536;28;20613;-67
2022/04/25 11:45:06;;;;;;;7.20;4.40;;;15.10;99.90;;;;;;5093998;28;20191;-67
2022/04/25 11:47:34;;;;;;;8.97;4.53;;;15.10;99.90;;;;;;5094010;28;20540;-67
2022/04/25 11:50:07;;;;;;;5.67;3.57;;;15.00;99.90;;;;;;5093620;28;20174;-68
2022/04/25 11:52:34;;;;;;;6.27;3.97;;;15.00;99.90;;;;;;5093934;28;20175;-68
2022/04/25 11:55:03;;;;;;;7.20;3.90;;;15.00;99.90;;;;;;5093961;28;20267;-68
2022/04/25 11:57:39;;;;;;;7.87;4.80;;;15.00;99.90;;;;;;5093438;28;20302;-67
2022/04/25 12:00:19;;;;;;;7.53;4.53;;;14.90;99.90;;;;;;5093335;28;20651;-67
2022/04/25 12:02:47;;;;;;;7.63;4.30;;;15.00;99.90;;;;;;5091575;28;20179;-67
2022/04/25 12:05:25;;;;;;;9.00;4.27;;;14.90;99.90;;;;;;5093151;28;20210;-67
2022/04/25 12:16:09;;;;;;;7.37;4.60;;;14.80;99.90;;;;;;5091657;28;20261;-67
2022/04/25 12:18:48;;;;;;;7.97;4.13;;;14.80;99.90;;;;;;5092869;28;20210;-67
2022/04/25 12:21:17;;;;;;;9.43;4.97;;;14.70;99.90;;;;;;5093596;28;20565;-67
2022/04/25 12:23:55;;;;;;;10.20;4.60;;;14.70;99.90;;;;;;5093460;28;20194;-67
2022/04/25 12:26:27;;;;;;;11.57;5.00;;;14.60;99.90;;;;;;5093620;28;20202;-67
2022/04/25 12:29:09;;;;;;;8.67;4.10;;;14.70;99.90;;;;;;5093308;28;20262;-67
2022/04/25 12:31:49;;;;;;;8.57;4.70;;;14.60;99.90;;;;;;5093674;28;20353;-67
2022/04/25 12:34:19;;;;;;;9.17;4.83;;;14.60;99.90;;;;;;5093916;28;20261;-67
2022/04/25 12:37:00;;;;;;;9.27;4.27;;;14.50;99.90;;;;;;5093432;28;20240;-66
2022/04/25 12:39:27;;;;;;;8.77;5.10;;;14.50;99.90;;;;;;5093286;28;20219;-66
2022/04/25 12:42:01;;;;;;;8.10;4.53;;;14.50;99.90;;;;;;5092792;28;20167;-66
2022/04/25 12:44:29;;;;;;;10.07;4.23;;;14.50;99.90;;;;;;5092573;28;20190;-65
2022/04/25 12:47:08;;;;;;;11.87;4.87;;;14.50;99.90;;;;;;5092536;28;20184;-66
2022/04/25 12:49:36;;;;;;;9.43;4.37;;;14.50;99.90;;;;;;5092913;28;20182;-66
2022/04/25 12:52:05;;;;;;;10.53;4.93;;;14.50;99.90;;;;;;5093387;28;20533;-66
2022/04/25 12:54:46;;;;;;;7.60;4.37;;;14.50;99.90;;;;;;5093206;28;20186;-67
2022/04/25 12:57:26;;;;;;;7.30;4.13;;;14.40;99.90;;;;;;5092692;28;20215;-67
2022/04/25 12:59:54;;;;;;;8.13;4.87;;;14.50;99.90;;;;;;5073125;28;20181;-67
2022/04/25 13:02:35;;;;;;;6.67;4.00;;;14.50;99.90;;;;;;5072854;28;20172;-67
2022/04/25 13:05:07;;;;;;;8.33;4.10;;;14.50;99.90;;;;;;5072884;28;20176;-67
2022/04/25 13:07:39;;;;;;;6.20;3.63;;;14.50;99.90;;;;;;5072867;28;20172;-68
2022/04/25 13:10:07;;;;;;;9.37;4.13;;;14.40;99.90;;;;;;5072916;28;20168;-67
2022/04/25 13:13:05;;;;;;;6.47;3.60;;;14.40;99.90;;;;;;5083129;28;20172;-67
2022/04/25 13:15:32;;;;;;;8.73;4.07;;;14.40;99.90;;;;;;5063219;28;20310;-67
2022/04/25 13:17:59;;;;;;;9.90;4.10;;;14.40;99.90;;;;;;5072874;28;20233;-67
2022/04/25 13:20:31;;;;;;;5.60;3.53;;;14.30;99.90;;;;;;5077727;28;20181;-67
2022/04/25 13:23:02;;;;;;;6.83;3.77;;;14.30;99.90;;;;;;5092522;28;20714;-68
2022/04/25 13:25:29;;;;;;;7.93;3.97;;;14.20;99.90;;;;;;5093008;28;20203;-68
2022/04/25 13:27:56;;;;;;;6.07;3.47;;;14.20;99.90;;;;;;5092698;28;20201;-68
2022/04/25 13:30:24;;;;;;;6.87;3.80;;;14.20;99.90;;;;;;5092613;28;20179;-68
2022/04/25 13:32:53;;;;;;;5.57;3.73;;;14.20;99.90;;;;;;5092325;28;20182;-66
2022/04/25 13:35:22;;;;;;;6.37;3.90;;;14.20;99.90;;;;;;5093049;28;20179;-67
2022/04/25 13:37:50;;;;;;;9.33;3.40;;;14.20;99.90;;;;;;5092405;28;20880;-66